Pensacola Regional Airport
KPNS : now visible

Airfield :











YOU CAN JOIN US ON...

 
LOGIN :

Register | Disclaimer

   EN    FR    IT 

 









Legend :    VFR   Marginal VFR   IFR   Intensive IFR   Very Intensive IFR
Visi :
Ceiling :
>= 8 km
>= 3000ft
5 to 8 km
1000 to 3000 ft
1500m to 5 km
500 to 1000 ft
800 to 1500m
200 to 500 ft
< 800m
< 200 ft
Symbols :   Thunderstorms  Fog  Heavy snow  Heavy precipitations  Wind > 20 kt







- Airport Elevation : 121 ft
- IATA code : PNS


KPNS - Pensacola Regional

CURRENT METAR :
  • 191218Z 30005KT 10SM SCT028 OVC046 18/17 A2961 RMK AO2 T01780167

EXPIRED METARs :
  • 191153Z 28007KT 10SM BKN027 18/17 A2961 RMK AO2 SLP028 60067 70074 T01780167 10233 20172 51012
  • 191101Z 29008KT 10SM BKN030 OVC034 18/17 A2961 RMK AO2 T01830172
  • 191053Z 28010KT 10SM OVC028 18/18 A2961 RMK AO2 SLP027 T01830178
  • 191008Z AUTO 29008KT 10SM BKN026 BKN065 OVC085 18/18 A2960 RMK AO2 T01830183
  • 190953Z AUTO 28009KT 10SM FEW026 BKN060 OVC080 18/18 A2960 RMK AO2 RAE0858B15E31 SLP024 P0001 T01830183

TAF KPNS
Valid from the 19 at 12:00 until the 20 at 12:00 UTC


191139Z 1912/2012 29008KT P6SM BKN025 OVC035
FM191500 29024G32KT P6SM OVC025
FM191900 30025G34KT P6SM VCSH OVC040
FM200100 29012G20KT P6SM OVC060
KZJX FIR / North America



MET'MAP, your aeronautical weather chart ! - Copyright ORBIFLY December 2007 - Disclaimer

ORBIFLY MET'MAP TEAM :

Programming & Development : Alexandra Zaïnal
Concept & Development : Baudouin d'Aumeries
Co-Development & Prog : Marc-Olivier Méhu
Technical & hardware support : Manuel Goepfert

Contact : metmap@orbifly.com




SOURCES & CREDITS :

   NOAA       Earth
Advisory